首页
METAR-TAF:

METAR-TAF

机场 :

Waddington, 英格兰

纬度: 53-10N, 经度: 000-31W, 海拔: 68米

当前天气观测

该预报发布于28分钟前的09:50 UTC
风速15节,风向
温度 18°C
湿度 83%
气压 1015 hPa
能见度10公里或以上

METAR: EGXW 140950Z AUTO 01015KT 9999 OVC006/// 18/15 Q1015

时间: 11:18 (10:18 UTC)

预报

该预报发布于1小时和6分钟前的09:12 UTC
预报有效从14日的 09点(UTC)到 14日的 18点(UTC)
风速12节,风向东北
能见度10公里或以上
多云层高于600英尺
成为
从 14日的 09点(UTC)到 14日的 12点(UTC)
散云层高于2500英尺
几率 40% :
短暂存在
从 14日的 09点(UTC)到 14日的 18点(UTC)
能見度: 5000
阵雨
几率 30% :
短暂存在
从 14日的 09点(UTC)到 14日的 18点(UTC)
能見度: 3000
散云层高于1000英尺
散云层高于7000英尺, 积雨云.
雷暴, 雨
成为
从 14日的 16点(UTC)到 14日的 18点(UTC)
散云层高于1200英尺

TAF: EGXW 140912Z 1409/1418 04012KT 9999 BKN006 BECMG 1409/1412 SCT025 PROB40 TEMPO 1409/1418 5000 SHRA PROB30 TEMPO 1409/1418 3000 TSRA SCT010 SCT070CB BECMG 1416/1418 SCT012

超过4000个机场的气象观测和天气预报(METAR&TAF报告)。

可查询的气象台以黄色和红色小点在地图上表示。

将鼠标移到小点上方,可查看气象台名称。

然后点击查看天气观测和预报。

如需切换地图:点击带黑十字的绿色按钮放大地图;点击带横线的绿色按钮缩小地图;或者点击绿色箭头查看邻近地区的地图。


METAR-TAF: